sensor_id;sensor_type;location;lat;lon;timestamp;temperature;humidity
6118;DHT22;3089;48.202;11.510;2022-09-09T00:01:49;16.70;99.90
6118;DHT22;3089;48.202;11.510;2022-09-09T00:04:25;16.70;99.90
6118;DHT22;3089;48.202;11.510;2022-09-09T00:07:03;16.70;99.90
6118;DHT22;3089;48.202;11.510;2022-09-09T00:09:35;16.60;99.90
6118;DHT22;3089;48.202;11.510;2022-09-09T00:12:10;16.60;99.90
6118;DHT22;3089;48.202;11.510;2022-09-09T00:14:45;16.60;99.90
6118;DHT22;3089;48.202;11.510;2022-09-09T00:17:21;16.60;99.90
6118;DHT22;3089;48.202;11.510;2022-09-09T00:19:56;16.60;99.90
6118;DHT22;3089;48.202;11.510;2022-09-09T00:22:30;16.60;99.90
6118;DHT22;3089;48.202;11.510;2022-09-09T00:25:04;16.50;99.90
6118;DHT22;3089;48.202;11.510;2022-09-09T00:27:41;16.50;99.90
6118;DHT22;3089;48.202;11.510;2022-09-09T00:30:15;16.60;99.90
6118;DHT22;3089;48.202;11.510;2022-09-09T00:32:46;16.50;99.90
6118;DHT22;3089;48.202;11.510;2022-09-09T00:35:18;16.50;99.90
6118;DHT22;3089;48.202;11.510;2022-09-09T00:37:52;16.50;99.90
6118;DHT22;3089;48.202;11.510;2022-09-09T00:40:28;16.50;99.90
6118;DHT22;3089;48.202;11.510;2022-09-09T00:43:10;16.50;99.90
6118;DHT22;3089;48.202;11.510;2022-09-09T00:49:04;16.40;99.90
6118;DHT22;3089;48.202;11.510;2022-09-09T00:51:41;16.40;99.90
6118;DHT22;3089;48.202;11.510;2022-09-09T00:54:27;16.40;99.90
6118;DHT22;3089;48.202;11.510;2022-09-09T00:57:04;16.40;99.90
6118;DHT22;3089;48.202;11.510;2022-09-09T00:59:45;16.40;99.90
6118;DHT22;3089;48.202;11.510;2022-09-09T01:02:18;16.40;99.90
6118;DHT22;3089;48.202;11.510;2022-09-09T01:04:49;16.40;99.90
6118;DHT22;3089;48.202;11.510;2022-09-09T01:07:18;16.30;99.90
6118;DHT22;3089;48.202;11.510;2022-09-09T01:09:52;16.30;99.90
6118;DHT22;3089;48.202;11.510;2022-09-09T01:12:40;16.30;99.90
6118;DHT22;3089;48.202;11.510;2022-09-09T01:15:11;16.30;99.90
6118;DHT22;3089;48.202;11.510;2022-09-09T01:17:50;16.30;99.90
6118;DHT22;3089;48.202;11.510;2022-09-09T01:20:23;16.30;99.90
6118;DHT22;3089;48.202;11.510;2022-09-09T01:23:04;16.30;99.90
6118;DHT22;3089;48.202;11.510;2022-09-09T01:26:07;16.20;99.90
6118;DHT22;3089;48.202;11.510;2022-09-09T01:28:37;16.20;99.90
6118;DHT22;3089;48.202;11.510;2022-09-09T01:31:08;16.20;99.90
6118;DHT22;3089;48.202;11.510;2022-09-09T01:33:37;16.30;99.90
6118;DHT22;3089;48.202;11.510;2022-09-09T01:36:08;16.20;99.90
6118;DHT22;3089;48.202;11.510;2022-09-09T01:38:36;16.20;99.90
6118;DHT22;3089;48.202;11.510;2022-09-09T01:41:06;16.20;99.90
6118;DHT22;3089;48.202;11.510;2022-09-09T01:43:34;16.20;99.90
6118;DHT22;3089;48.202;11.510;2022-09-09T01:46:02;16.10;99.90
6118;DHT22;3089;48.202;11.510;2022-09-09T01:48:30;16.00;99.90
6118;DHT22;3089;48.202;11.510;2022-09-09T01:50:58;16.00;99.90
6118;DHT22;3089;48.202;11.510;2022-09-09T01:53:26;16.10;99.90
6118;DHT22;3089;48.202;11.510;2022-09-09T01:56:11;16.00;99.90
6118;DHT22;3089;48.202;11.510;2022-09-09T01:58:51;16.00;99.90
6118;DHT22;3089;48.202;11.510;2022-09-09T02:01:38;16.00;99.90
6118;DHT22;3089;48.202;11.510;2022-09-09T02:04:17;16.00;99.90
6118;DHT22;3089;48.202;11.510;2022-09-09T02:06:50;16.00;99.90
6118;DHT22;3089;48.202;11.510;2022-09-09T02:09:23;16.00;99.90
6118;DHT22;3089;48.202;11.510;2022-09-09T02:11:57;15.90;99.90
6118;DHT22;3089;48.202;11.510;2022-09-09T02:14:31;15.90;99.90
6118;DHT22;3089;48.202;11.510;2022-09-09T02:17:03;15.80;99.90
6118;DHT22;3089;48.202;11.510;2022-09-09T02:19:37;15.80;99.90
6118;DHT22;3089;48.202;11.510;2022-09-09T02:22:06;15.80;99.90
6118;DHT22;3089;48.202;11.510;2022-09-09T02:24:36;15.80;99.90
6118;DHT22;3089;48.202;11.510;2022-09-09T02:27:07;15.80;99.90
6118;DHT22;3089;48.202;11.510;2022-09-09T02:29:38;15.70;99.90
6118;DHT22;3089;48.202;11.510;2022-09-09T02:32:11;15.80;99.90
6118;DHT22;3089;48.202;11.510;2022-09-09T02:34:43;15.80;99.90
6118;DHT22;3089;48.202;11.510;2022-09-09T02:37:13;15.70;99.90
6118;DHT22;3089;48.202;11.510;2022-09-09T02:39:42;15.70;99.90
6118;DHT22;3089;48.202;11.510;2022-09-09T02:42:12;15.70;99.90
6118;DHT22;3089;48.202;11.510;2022-09-09T02:44:42;15.70;99.90
6118;DHT22;3089;48.202;11.510;2022-09-09T02:47:25;15.70;99.90
6118;DHT22;3089;48.202;11.510;2022-09-09T02:50:01;15.60;99.90
6118;DHT22;3089;48.202;11.510;2022-09-09T02:52:36;15.60;99.90
6118;DHT22;3089;48.202;11.510;2022-09-09T02:55:12;15.60;99.90
6118;DHT22;3089;48.202;11.510;2022-09-09T02:57:46;15.60;99.90
6118;DHT22;3089;48.202;11.510;2022-09-09T03:00:14;15.60;99.90
6118;DHT22;3089;48.202;11.510;2022-09-09T03:02:42;15.60;99.90
6118;DHT22;3089;48.202;11.510;2022-09-09T03:05:12;15.50;99.90
6118;DHT22;3089;48.202;11.510;2022-09-09T03:07:40;15.50;99.90
6118;DHT22;3089;48.202;11.510;2022-09-09T03:10:08;15.50;99.90
6118;DHT22;3089;48.202;11.510;2022-09-09T03:12:37;15.50;99.90
6118;DHT22;3089;48.202;11.510;2022-09-09T03:15:08;15.50;99.90
6118;DHT22;3089;48.202;11.510;2022-09-09T03:17:36;15.50;99.90
6118;DHT22;3089;48.202;11.510;2022-09-09T03:20:04;15.50;99.90
6118;DHT22;3089;48.202;11.510;2022-09-09T03:22:34;15.50;99.90
6118;DHT22;3089;48.202;11.510;2022-09-09T03:25:02;15.50;99.90
6118;DHT22;3089;48.202;11.510;2022-09-09T03:27:30;15.50;99.90
6118;DHT22;3089;48.202;11.510;2022-09-09T03:29:58;15.50;99.90
6118;DHT22;3089;48.202;11.510;2022-09-09T03:32:31;15.50;99.90
6118;DHT22;3089;48.202;11.510;2022-09-09T03:34:59;15.60;99.90
6118;DHT22;3089;48.202;11.510;2022-09-09T03:37:27;15.70;99.90
6118;DHT22;3089;48.202;11.510;2022-09-09T03:39:54;15.70;99.90
6118;DHT22;3089;48.202;11.510;2022-09-09T03:42:22;15.70;99.90
6118;DHT22;3089;48.202;11.510;2022-09-09T03:44:50;15.60;99.90
6118;DHT22;3089;48.202;11.510;2022-09-09T03:47:19;15.60;99.90
6118;DHT22;3089;48.202;11.510;2022-09-09T03:49:49;15.60;99.90
6118;DHT22;3089;48.202;11.510;2022-09-09T03:52:17;15.50;99.90
6118;DHT22;3089;48.202;11.510;2022-09-09T03:54:49;15.50;99.90
6118;DHT22;3089;48.202;11.510;2022-09-09T03:57:17;15.60;99.90
6118;DHT22;3089;48.202;11.510;2022-09-09T03:59:45;15.50;99.90
6118;DHT22;3089;48.202;11.510;2022-09-09T04:02:13;15.60;99.90
6118;DHT22;3089;48.202;11.510;2022-09-09T04:04:42;15.70;99.90
6118;DHT22;3089;48.202;11.510;2022-09-09T04:07:11;15.70;99.90
6118;DHT22;3089;48.202;11.510;2022-09-09T04:09:39;15.60;99.90
6118;DHT22;3089;48.202;11.510;2022-09-09T04:12:07;15.60;99.90
6118;DHT22;3089;48.202;11.510;2022-09-09T04:14:34;15.50;99.90
6118;DHT22;3089;48.202;11.510;2022-09-09T04:17:02;15.60;99.90
6118;DHT22;3089;48.202;11.510;2022-09-09T04:19:32;15.70;99.90
6118;DHT22;3089;48.202;11.510;2022-09-09T04:22:00;15.60;99.90
6118;DHT22;3089;48.202;11.510;2022-09-09T04:24:29;15.50;99.90
6118;DHT22;3089;48.202;11.510;2022-09-09T04:26:57;15.40;99.90
6118;DHT22;3089;48.202;11.510;2022-09-09T04:29:25;15.70;99.90
6118;DHT22;3089;48.202;11.510;2022-09-09T04:31:53;15.70;99.90
6118;DHT22;3089;48.202;11.510;2022-09-09T04:34:21;15.70;99.90
6118;DHT22;3089;48.202;11.510;2022-09-09T04:36:48;15.60;99.90
6118;DHT22;3089;48.202;11.510;2022-09-09T04:39:18;15.60;99.90
6118;DHT22;3089;48.202;11.510;2022-09-09T04:41:47;15.60;99.90
6118;DHT22;3089;48.202;11.510;2022-09-09T04:44:15;15.60;99.90
6118;DHT22;3089;48.202;11.510;2022-09-09T04:46:43;15.50;99.90
6118;DHT22;3089;48.202;11.510;2022-09-09T04:49:11;15.40;99.90
6118;DHT22;3089;48.202;11.510;2022-09-09T04:51:41;15.30;99.90
6118;DHT22;3089;48.202;11.510;2022-09-09T04:54:09;15.40;99.90
6118;DHT22;3089;48.202;11.510;2022-09-09T04:56:38;15.40;99.90
6118;DHT22;3089;48.202;11.510;2022-09-09T04:59:07;15.30;99.90
6118;DHT22;3089;48.202;11.510;2022-09-09T05:01:36;15.30;99.90
6118;DHT22;3089;48.202;11.510;2022-09-09T05:04:04;15.30;99.90
6118;DHT22;3089;48.202;11.510;2022-09-09T05:06:32;15.30;99.90
6118;DHT22;3089;48.202;11.510;2022-09-09T05:09:00;15.20;99.90
6118;DHT22;3089;48.202;11.510;2022-09-09T05:11:29;15.20;99.90
6118;DHT22;3089;48.202;11.510;2022-09-09T05:13:58;15.20;99.90
6118;DHT22;3089;48.202;11.510;2022-09-09T05:16:27;15.30;99.90
6118;DHT22;3089;48.202;11.510;2022-09-09T05:18:56;15.20;99.90
6118;DHT22;3089;48.202;11.510;2022-09-09T05:21:25;15.20;99.90
6118;DHT22;3089;48.202;11.510;2022-09-09T05:23:54;15.10;99.90
6118;DHT22;3089;48.202;11.510;2022-09-09T05:26:22;15.10;99.90
6118;DHT22;3089;48.202;11.510;2022-09-09T05:28:50;15.20;99.90
6118;DHT22;3089;48.202;11.510;2022-09-09T05:31:19;15.20;99.90
6118;DHT22;3089;48.202;11.510;2022-09-09T05:33:48;15.20;99.90
6118;DHT22;3089;48.202;11.510;2022-09-09T05:36:18;15.30;99.90
6118;DHT22;3089;48.202;11.510;2022-09-09T05:38:46;15.20;99.90
6118;DHT22;3089;48.202;11.510;2022-09-09T05:41:16;15.30;99.90
6118;DHT22;3089;48.202;11.510;2022-09-09T05:43:44;15.30;99.90
6118;DHT22;3089;48.202;11.510;2022-09-09T05:46:17;15.30;99.90
6118;DHT22;3089;48.202;11.510;2022-09-09T05:48:48;15.30;99.90
6118;DHT22;3089;48.202;11.510;2022-09-09T05:51:20;15.30;99.90
6118;DHT22;3089;48.202;11.510;2022-09-09T05:53:51;15.30;99.90
6118;DHT22;3089;48.202;11.510;2022-09-09T05:56:20;15.30;99.90
6118;DHT22;3089;48.202;11.510;2022-09-09T05:58:49;15.20;99.90
6118;DHT22;3089;48.202;11.510;2022-09-09T06:01:19;15.20;99.90
6118;DHT22;3089;48.202;11.510;2022-09-09T06:03:51;15.30;99.90
6118;DHT22;3089;48.202;11.510;2022-09-09T06:06:20;15.20;99.90
6118;DHT22;3089;48.202;11.510;2022-09-09T06:08:50;15.20;99.90
6118;DHT22;3089;48.202;11.510;2022-09-09T06:11:20;15.30;99.90
6118;DHT22;3089;48.202;11.510;2022-09-09T06:13:48;15.30;99.90
6118;DHT22;3089;48.202;11.510;2022-09-09T06:16:21;15.30;99.90
6118;DHT22;3089;48.202;11.510;2022-09-09T06:18:52;15.30;99.90
6118;DHT22;3089;48.202;11.510;2022-09-09T06:21:22;15.40;99.90
6118;DHT22;3089;48.202;11.510;2022-09-09T06:23:50;15.30;99.90
6118;DHT22;3089;48.202;11.510;2022-09-09T06:26:27;15.20;99.90
6118;DHT22;3089;48.202;11.510;2022-09-09T06:28:55;15.30;99.90
6118;DHT22;3089;48.202;11.510;2022-09-09T06:31:25;15.40;99.90
6118;DHT22;3089;48.202;11.510;2022-09-09T06:33:58;15.50;99.90
6118;DHT22;3089;48.202;11.510;2022-09-09T06:36:28;15.50;99.90
6118;DHT22;3089;48.202;11.510;2022-09-09T06:38:56;15.60;99.90
6118;DHT22;3089;48.202;11.510;2022-09-09T06:41:25;15.60;99.90
6118;DHT22;3089;48.202;11.510;2022-09-09T06:43:54;15.60;99.90
6118;DHT22;3089;48.202;11.510;2022-09-09T06:46:23;15.70;99.90
6118;DHT22;3089;48.202;11.510;2022-09-09T06:48:55;15.60;99.90
6118;DHT22;3089;48.202;11.510;2022-09-09T06:51:28;15.70;99.90
6118;DHT22;3089;48.202;11.510;2022-09-09T06:53:57;15.70;99.90
6118;DHT22;3089;48.202;11.510;2022-09-09T06:56:26;15.70;99.90
6118;DHT22;3089;48.202;11.510;2022-09-09T06:58:55;15.70;99.90
6118;DHT22;3089;48.202;11.510;2022-09-09T07:01:27;15.70;99.90
6118;DHT22;3089;48.202;11.510;2022-09-09T07:03:58;15.70;99.90
6118;DHT22;3089;48.202;11.510;2022-09-09T07:06:29;15.70;99.90
6118;DHT22;3089;48.202;11.510;2022-09-09T07:08:59;15.70;99.90
6118;DHT22;3089;48.202;11.510;2022-09-09T07:11:28;15.60;99.90
6118;DHT22;3089;48.202;11.510;2022-09-09T07:13:58;15.40;99.90
6118;DHT22;3089;48.202;11.510;2022-09-09T07:16:27;15.40;99.90
6118;DHT22;3089;48.202;11.510;2022-09-09T07:18:56;15.50;99.90
6118;DHT22;3089;48.202;11.510;2022-09-09T07:21:27;15.50;99.90
6118;DHT22;3089;48.202;11.510;2022-09-09T07:23:55;15.30;99.90
6118;DHT22;3089;48.202;11.510;2022-09-09T07:26:25;15.30;99.90
6118;DHT22;3089;48.202;11.510;2022-09-09T07:28:54;15.30;99.90
6118;DHT22;3089;48.202;11.510;2022-09-09T07:31:24;15.40;99.90
6118;DHT22;3089;48.202;11.510;2022-09-09T07:33:53;15.30;99.90
6118;DHT22;3089;48.202;11.510;2022-09-09T07:36:23;15.20;99.90
6118;DHT22;3089;48.202;11.510;2022-09-09T07:39:01;15.30;99.90
6118;DHT22;3089;48.202;11.510;2022-09-09T07:41:32;15.40;99.90
6118;DHT22;3089;48.202;11.510;2022-09-09T07:44:05;15.50;99.90
6118;DHT22;3089;48.202;11.510;2022-09-09T07:46:34;15.50;99.90
6118;DHT22;3089;48.202;11.510;2022-09-09T07:49:03;15.40;99.90
6118;DHT22;3089;48.202;11.510;2022-09-09T07:51:33;15.40;99.90
6118;DHT22;3089;48.202;11.510;2022-09-09T07:54:04;15.40;99.90
6118;DHT22;3089;48.202;11.510;2022-09-09T07:56:33;15.40;99.90
6118;DHT22;3089;48.202;11.510;2022-09-09T07:59:01;15.50;99.90
6118;DHT22;3089;48.202;11.510;2022-09-09T08:01:32;15.50;99.90
6118;DHT22;3089;48.202;11.510;2022-09-09T08:04:02;15.50;99.90
6118;DHT22;3089;48.202;11.510;2022-09-09T08:06:32;15.60;99.90
6118;DHT22;3089;48.202;11.510;2022-09-09T08:09:02;15.80;99.90
6118;DHT22;3089;48.202;11.510;2022-09-09T08:11:31;15.80;99.90
6118;DHT22;3089;48.202;11.510;2022-09-09T08:14:05;15.80;99.90
6118;DHT22;3089;48.202;11.510;2022-09-09T08:16:35;15.90;99.90
6118;DHT22;3089;48.202;11.510;2022-09-09T08:19:04;15.80;99.90
6118;DHT22;3089;48.202;11.510;2022-09-09T08:21:32;15.80;99.90
6118;DHT22;3089;48.202;11.510;2022-09-09T08:24:03;15.60;99.90
6118;DHT22;3089;48.202;11.510;2022-09-09T08:26:34;15.70;99.90
6118;DHT22;3089;48.202;11.510;2022-09-09T08:29:04;15.70;99.90
6118;DHT22;3089;48.202;11.510;2022-09-09T08:31:34;15.70;99.90
6118;DHT22;3089;48.202;11.510;2022-09-09T08:34:04;15.70;99.90
6118;DHT22;3089;48.202;11.510;2022-09-09T08:36:34;15.70;99.90
6118;DHT22;3089;48.202;11.510;2022-09-09T08:39:05;15.70;99.90
6118;DHT22;3089;48.202;11.510;2022-09-09T08:45:20;15.80;99.90
6118;DHT22;3089;48.202;11.510;2022-09-09T08:50:39;15.80;99.90
6118;DHT22;3089;48.202;11.510;2022-09-09T08:53:11;15.90;99.90
6118;DHT22;3089;48.202;11.510;2022-09-09T08:55:45;15.90;99.90
6118;DHT22;3089;48.202;11.510;2022-09-09T08:58:16;15.90;99.90
6118;DHT22;3089;48.202;11.510;2022-09-09T09:03:46;16.10;99.90
6118;DHT22;3089;48.202;11.510;2022-09-09T09:06:26;16.20;99.90
6118;DHT22;3089;48.202;11.510;2022-09-09T09:09:05;16.30;99.90
6118;DHT22;3089;48.202;11.510;2022-09-09T09:11:38;16.30;99.90
6118;DHT22;3089;48.202;11.510;2022-09-09T09:14:11;16.40;99.90
6118;DHT22;3089;48.202;11.510;2022-09-09T09:16:50;16.50;99.90
6118;DHT22;3089;48.202;11.510;2022-09-09T09:19:20;16.60;99.90
6118;DHT22;3089;48.202;11.510;2022-09-09T09:21:53;16.80;99.90
6118;DHT22;3089;48.202;11.510;2022-09-09T09:24:27;16.60;99.90
6118;DHT22;3089;48.202;11.510;2022-09-09T09:27:04;16.70;99.90
6118;DHT22;3089;48.202;11.510;2022-09-09T09:29:36;16.80;99.90
6118;DHT22;3089;48.202;11.510;2022-09-09T09:32:28;16.90;99.90
6118;DHT22;3089;48.202;11.510;2022-09-09T09:34:58;17.00;99.90
6118;DHT22;3089;48.202;11.510;2022-09-09T09:37:30;17.00;99.90
6118;DHT22;3089;48.202;11.510;2022-09-09T09:40:08;17.00;99.90
6118;DHT22;3089;48.202;11.510;2022-09-09T09:42:48;17.00;99.90
6118;DHT22;3089;48.202;11.510;2022-09-09T09:45:26;17.00;99.90
6118;DHT22;3089;48.202;11.510;2022-09-09T09:48:00;17.00;99.90
6118;DHT22;3089;48.202;11.510;2022-09-09T09:50:33;17.10;99.90
6118;DHT22;3089;48.202;11.510;2022-09-09T09:53:03;17.10;99.90
6118;DHT22;3089;48.202;11.510;2022-09-09T09:55:33;17.10;99.90
6118;DHT22;3089;48.202;11.510;2022-09-09T09:58:06;17.00;99.90
6118;DHT22;3089;48.202;11.510;2022-09-09T10:00:34;17.00;99.90
6118;DHT22;3089;48.202;11.510;2022-09-09T10:03:17;17.00;99.90
6118;DHT22;3089;48.202;11.510;2022-09-09T10:05:47;17.00;99.90
6118;DHT22;3089;48.202;11.510;2022-09-09T10:08:16;17.00;99.90
6118;DHT22;3089;48.202;11.510;2022-09-09T10:10:53;17.00;99.90
6118;DHT22;3089;48.202;11.510;2022-09-09T10:13:28;17.00;99.90
6118;DHT22;3089;48.202;11.510;2022-09-09T10:16:12;16.90;99.90
6118;DHT22;3089;48.202;11.510;2022-09-09T10:18:58;17.00;99.90
6118;DHT22;3089;48.202;11.510;2022-09-09T10:21:46;17.10;99.90
6118;DHT22;3089;48.202;11.510;2022-09-09T10:24:32;17.10;99.90
6118;DHT22;3089;48.202;11.510;2022-09-09T10:27:08;17.20;99.90
6118;DHT22;3089;48.202;11.510;2022-09-09T10:30:04;17.20;99.90
6118;DHT22;3089;48.202;11.510;2022-09-09T10:32:46;17.30;99.90
6118;DHT22;3089;48.202;11.510;2022-09-09T10:35:37;17.30;99.90
6118;DHT22;3089;48.202;11.510;2022-09-09T10:38:18;17.40;99.90
6118;DHT22;3089;48.202;11.510;2022-09-09T10:41:06;17.40;99.90
6118;DHT22;3089;48.202;11.510;2022-09-09T10:43:46;17.50;99.90
6118;DHT22;3089;48.202;11.510;2022-09-09T10:46:33;17.60;99.90
6118;DHT22;3089;48.202;11.510;2022-09-09T10:49:14;17.60;99.90
6118;DHT22;3089;48.202;11.510;2022-09-09T10:51:54;17.70;99.90
6118;DHT22;3089;48.202;11.510;2022-09-09T10:54:35;17.80;99.90
6118;DHT22;3089;48.202;11.510;2022-09-09T10:57:12;17.90;99.90
6118;DHT22;3089;48.202;11.510;2022-09-09T10:59:46;17.90;99.90
6118;DHT22;3089;48.202;11.510;2022-09-09T11:02:22;18.00;99.90
6118;DHT22;3089;48.202;11.510;2022-09-09T11:04:58;18.00;99.90
6118;DHT22;3089;48.202;11.510;2022-09-09T11:07:33;18.00;99.90
6118;DHT22;3089;48.202;11.510;2022-09-09T11:10:06;18.00;99.90
6118;DHT22;3089;48.202;11.510;2022-09-09T11:12:37;18.20;99.90
6118;DHT22;3089;48.202;11.510;2022-09-09T11:15:14;18.30;99.90
6118;DHT22;3089;48.202;11.510;2022-09-09T11:17:48;18.30;99.90
6118;DHT22;3089;48.202;11.510;2022-09-09T11:20:17;18.30;99.90
6118;DHT22;3089;48.202;11.510;2022-09-09T11:22:50;18.40;99.90
6118;DHT22;3089;48.202;11.510;2022-09-09T11:25:22;18.60;99.90
6118;DHT22;3089;48.202;11.510;2022-09-09T11:28:15;18.70;99.90
6118;DHT22;3089;48.202;11.510;2022-09-09T11:30:59;18.60;99.90
6118;DHT22;3089;48.202;11.510;2022-09-09T11:33:41;18.50;99.90
6118;DHT22;3089;48.202;11.510;2022-09-09T11:36:39;18.50;99.90
6118;DHT22;3089;48.202;11.510;2022-09-09T11:39:35;18.50;99.90
6118;DHT22;3089;48.202;11.510;2022-09-09T11:42:06;18.80;99.90
6118;DHT22;3089;48.202;11.510;2022-09-09T11:44:34;18.70;99.90
6118;DHT22;3089;48.202;11.510;2022-09-09T11:47:03;18.90;99.90
6118;DHT22;3089;48.202;11.510;2022-09-09T11:49:42;18.90;99.90
6118;DHT22;3089;48.202;11.510;2022-09-09T11:52:22;18.90;99.90
6118;DHT22;3089;48.202;11.510;2022-09-09T11:54:54;18.80;99.90
6118;DHT22;3089;48.202;11.510;2022-09-09T11:57:25;18.70;99.90
6118;DHT22;3089;48.202;11.510;2022-09-09T11:59:55;18.60;99.90
6118;DHT22;3089;48.202;11.510;2022-09-09T12:02:24;18.70;99.90
6118;DHT22;3089;48.202;11.510;2022-09-09T12:04:59;18.80;99.90
6118;DHT22;3089;48.202;11.510;2022-09-09T12:07:37;18.90;99.90
6118;DHT22;3089;48.202;11.510;2022-09-09T12:10:20;19.10;99.90
6118;DHT22;3089;48.202;11.510;2022-09-09T12:12:50;19.20;99.90
6118;DHT22;3089;48.202;11.510;2022-09-09T12:15:26;18.90;99.90
6118;DHT22;3089;48.202;11.510;2022-09-09T12:17:57;18.80;99.90
6118;DHT22;3089;48.202;11.510;2022-09-09T12:20:34;18.60;99.90
6118;DHT22;3089;48.202;11.510;2022-09-09T12:23:31;18.50;99.90
6118;DHT22;3089;48.202;11.510;2022-09-09T12:26:18;18.40;99.90
6118;DHT22;3089;48.202;11.510;2022-09-09T12:28:55;18.40;99.90
6118;DHT22;3089;48.202;11.510;2022-09-09T12:31:29;18.50;99.90
6118;DHT22;3089;48.202;11.510;2022-09-09T12:34:09;18.70;99.90
6118;DHT22;3089;48.202;11.510;2022-09-09T12:36:39;18.90;99.90
6118;DHT22;3089;48.202;11.510;2022-09-09T12:39:18;19.00;99.90
6118;DHT22;3089;48.202;11.510;2022-09-09T12:41:53;19.20;99.90
6118;DHT22;3089;48.202;11.510;2022-09-09T12:44:24;19.20;99.90
6118;DHT22;3089;48.202;11.510;2022-09-09T12:46:55;19.20;99.90
6118;DHT22;3089;48.202;11.510;2022-09-09T12:49:28;19.20;99.90
6118;DHT22;3089;48.202;11.510;2022-09-09T12:51:58;19.20;99.90
6118;DHT22;3089;48.202;11.510;2022-09-09T12:54:28;19.20;99.90
6118;DHT22;3089;48.202;11.510;2022-09-09T12:56:57;19.10;99.90
6118;DHT22;3089;48.202;11.510;2022-09-09T12:59:26;19.00;99.90
6118;DHT22;3089;48.202;11.510;2022-09-09T13:02:01;18.90;99.90
6118;DHT22;3089;48.202;11.510;2022-09-09T13:04:30;19.00;99.90
6118;DHT22;3089;48.202;11.510;2022-09-09T13:07:07;19.10;99.90
6118;DHT22;3089;48.202;11.510;2022-09-09T13:09:36;19.00;99.90
6118;DHT22;3089;48.202;11.510;2022-09-09T13:12:05;19.00;99.90
6118;DHT22;3089;48.202;11.510;2022-09-09T13:14:35;19.10;99.90
6118;DHT22;3089;48.202;11.510;2022-09-09T13:17:05;19.10;99.90
6118;DHT22;3089;48.202;11.510;2022-09-09T13:19:36;19.00;99.90
6118;DHT22;3089;48.202;11.510;2022-09-09T13:22:13;19.00;99.90
6118;DHT22;3089;48.202;11.510;2022-09-09T13:24:41;19.30;99.90
6118;DHT22;3089;48.202;11.510;2022-09-09T13:27:26;19.20;99.90
6118;DHT22;3089;48.202;11.510;2022-09-09T13:29:56;19.30;99.90
6118;DHT22;3089;48.202;11.510;2022-09-09T13:32:25;19.40;99.90
6118;DHT22;3089;48.202;11.510;2022-09-09T13:34:54;19.40;99.90
6118;DHT22;3089;48.202;11.510;2022-09-09T13:37:30;19.30;99.90
6118;DHT22;3089;48.202;11.510;2022-09-09T13:39:59;19.20;99.90
6118;DHT22;3089;48.202;11.510;2022-09-09T13:42:30;19.30;99.90
6118;DHT22;3089;48.202;11.510;2022-09-09T13:44:59;19.40;99.90
6118;DHT22;3089;48.202;11.510;2022-09-09T13:47:30;19.40;99.90
6118;DHT22;3089;48.202;11.510;2022-09-09T13:50:13;19.60;99.90
6118;DHT22;3089;48.202;11.510;2022-09-09T13:52:46;19.50;99.90
6118;DHT22;3089;48.202;11.510;2022-09-09T13:55:15;19.50;99.90
6118;DHT22;3089;48.202;11.510;2022-09-09T13:57:51;19.40;99.90
6118;DHT22;3089;48.202;11.510;2022-09-09T14:00:19;19.30;99.90
6118;DHT22;3089;48.202;11.510;2022-09-09T14:02:47;19.20;99.90
6118;DHT22;3089;48.202;11.510;2022-09-09T14:05:15;19.10;99.90
6118;DHT22;3089;48.202;11.510;2022-09-09T14:07:45;19.10;99.90
6118;DHT22;3089;48.202;11.510;2022-09-09T14:10:18;19.00;99.90
6118;DHT22;3089;48.202;11.510;2022-09-09T14:12:47;18.90;99.90
6118;DHT22;3089;48.202;11.510;2022-09-09T14:15:15;18.90;99.90
6118;DHT22;3089;48.202;11.510;2022-09-09T14:17:43;18.90;99.90
6118;DHT22;3089;48.202;11.510;2022-09-09T14:20:11;18.90;99.90
6118;DHT22;3089;48.202;11.510;2022-09-09T14:22:41;18.90;99.90
6118;DHT22;3089;48.202;11.510;2022-09-09T14:25:12;18.90;99.90
6118;DHT22;3089;48.202;11.510;2022-09-09T14:27:41;18.90;99.90
6118;DHT22;3089;48.202;11.510;2022-09-09T14:30:10;18.90;99.90
6118;DHT22;3089;48.202;11.510;2022-09-09T14:32:38;18.70;99.90
6118;DHT22;3089;48.202;11.510;2022-09-09T14:35:07;18.80;99.90
6118;DHT22;3089;48.202;11.510;2022-09-09T14:37:35;18.80;99.90
6118;DHT22;3089;48.202;11.510;2022-09-09T14:40:03;18.80;99.90
6118;DHT22;3089;48.202;11.510;2022-09-09T14:42:32;18.90;99.90
6118;DHT22;3089;48.202;11.510;2022-09-09T14:45:00;18.90;99.90
6118;DHT22;3089;48.202;11.510;2022-09-09T14:47:27;18.80;99.90
6118;DHT22;3089;48.202;11.510;2022-09-09T14:49:56;18.80;99.90
6118;DHT22;3089;48.202;11.510;2022-09-09T14:52:24;18.80;99.90
6118;DHT22;3089;48.202;11.510;2022-09-09T14:54:52;18.90;99.90
6118;DHT22;3089;48.202;11.510;2022-09-09T14:57:20;18.90;99.90
6118;DHT22;3089;48.202;11.510;2022-09-09T14:59:49;18.90;99.90
6118;DHT22;3089;48.202;11.510;2022-09-09T15:02:17;18.80;99.90
6118;DHT22;3089;48.202;11.510;2022-09-09T15:04:45;18.80;99.90
6118;DHT22;3089;48.202;11.510;2022-09-09T15:07:13;18.80;99.90
6118;DHT22;3089;48.202;11.510;2022-09-09T15:09:41;18.80;99.90
6118;DHT22;3089;48.202;11.510;2022-09-09T15:12:09;18.80;99.90
6118;DHT22;3089;48.202;11.510;2022-09-09T15:14:36;18.90;99.90
6118;DHT22;3089;48.202;11.510;2022-09-09T15:17:06;18.90;99.90
6118;DHT22;3089;48.202;11.510;2022-09-09T15:19:34;18.90;99.90
6118;DHT22;3089;48.202;11.510;2022-09-09T15:22:03;19.10;99.90
6118;DHT22;3089;48.202;11.510;2022-09-09T15:24:32;19.10;99.90
6118;DHT22;3089;48.202;11.510;2022-09-09T15:27:00;19.20;99.90
6118;DHT22;3089;48.202;11.510;2022-09-09T15:29:28;19.20;99.90
6118;DHT22;3089;48.202;11.510;2022-09-09T15:31:56;19.20;99.90
6118;DHT22;3089;48.202;11.510;2022-09-09T15:34:25;19.20;99.90
6118;DHT22;3089;48.202;11.510;2022-09-09T15:36:53;19.30;99.90
6118;DHT22;3089;48.202;11.510;2022-09-09T15:39:21;19.20;99.90
6118;DHT22;3089;48.202;11.510;2022-09-09T15:41:49;19.20;99.90
6118;DHT22;3089;48.202;11.510;2022-09-09T15:44:18;19.20;99.90
6118;DHT22;3089;48.202;11.510;2022-09-09T15:46:49;19.20;99.90
6118;DHT22;3089;48.202;11.510;2022-09-09T15:49:18;19.20;99.90
6118;DHT22;3089;48.202;11.510;2022-09-09T15:51:51;19.20;99.90
6118;DHT22;3089;48.202;11.510;2022-09-09T15:54:21;19.10;99.90
6118;DHT22;3089;48.202;11.510;2022-09-09T15:56:51;19.10;99.90
6118;DHT22;3089;48.202;11.510;2022-09-09T15:59:21;19.00;99.90
6118;DHT22;3089;48.202;11.510;2022-09-09T16:01:49;18.90;99.90
6118;DHT22;3089;48.202;11.510;2022-09-09T16:04:18;18.90;99.90
6118;DHT22;3089;48.202;11.510;2022-09-09T16:06:51;18.80;99.90
6118;DHT22;3089;48.202;11.510;2022-09-09T16:09:20;18.80;99.90
6118;DHT22;3089;48.202;11.510;2022-09-09T16:11:48;18.70;99.90
6118;DHT22;3089;48.202;11.510;2022-09-09T16:14:15;18.70;99.90
6118;DHT22;3089;48.202;11.510;2022-09-09T16:16:44;18.70;99.90
6118;DHT22;3089;48.202;11.510;2022-09-09T16:19:12;18.70;99.90
6118;DHT22;3089;48.202;11.510;2022-09-09T16:21:43;18.70;99.90
6118;DHT22;3089;48.202;11.510;2022-09-09T16:24:14;18.80;99.90
6118;DHT22;3089;48.202;11.510;2022-09-09T16:26:45;18.80;99.90
6118;DHT22;3089;48.202;11.510;2022-09-09T16:29:14;18.80;99.90